createdAt,value
2023-03-17T00:02:01.455Z,70.90
2023-03-17T00:04:30.356Z,71.15
2023-03-17T00:07:00.589Z,71.17
2023-03-17T00:09:27.103Z,71.14
2023-03-17T00:11:59.250Z,71.37
2023-03-17T00:14:32.790Z,71.52
2023-03-17T00:17:03.161Z,71.97
2023-03-17T00:19:33.852Z,72.16
2023-03-17T00:22:02.215Z,72.15
2023-03-17T00:24:31.631Z,72.06
2023-03-17T00:27:00.819Z,71.93
2023-03-17T00:29:28.010Z,71.75
2023-03-17T00:32:04.567Z,71.95
2023-03-17T00:34:31.098Z,72.14
2023-03-17T00:37:00.736Z,72.07
2023-03-17T00:39:27.617Z,71.64
2023-03-17T00:41:56.741Z,72.16
2023-03-17T00:44:24.200Z,72.19
2023-03-17T00:46:52.493Z,72.44
2023-03-17T00:49:24.838Z,71.94
2023-03-17T00:51:54.280Z,72.05
2023-03-17T00:54:21.262Z,71.99
2023-03-17T00:56:52.062Z,72.08
2023-03-17T00:59:30.120Z,72.20
2023-03-17T01:01:57.918Z,72.44
2023-03-17T01:04:24.823Z,72.41
2023-03-17T01:06:52.261Z,72.64
2023-03-17T01:09:20.323Z,72.52
2023-03-17T01:11:51.554Z,72.87
2023-03-17T01:14:21.552Z,73.17
2023-03-17T01:16:48.582Z,73.58
2023-03-17T01:19:19.226Z,73.92
2023-03-17T01:21:48.039Z,73.46
2023-03-17T01:24:16.891Z,73.92
2023-03-17T01:26:48.270Z,73.67
2023-03-17T01:29:15.176Z,73.37
2023-03-17T01:31:42.252Z,73.29
2023-03-17T01:34:09.504Z,72.90
2023-03-17T01:36:39.552Z,73.33
2023-03-17T01:39:11.501Z,73.02
2023-03-17T01:41:40.096Z,72.88
2023-03-17T01:44:12.865Z,72.86
2023-03-17T01:46:40.476Z,72.99
2023-03-17T01:49:10.015Z,72.86
2023-03-17T01:51:52.606Z,72.93
2023-03-17T01:54:28.797Z,72.78
2023-03-17T01:57:11.325Z,72.90
2023-03-17T01:59:45.591Z,72.98
2023-03-17T02:02:19.601Z,72.89
2023-03-17T02:04:46.089Z,72.63
2023-03-17T02:07:28.671Z,72.44
2023-03-17T02:10:02.455Z,72.57
2023-03-17T02:12:37.119Z,72.63
2023-03-17T02:15:06.643Z,72.72
2023-03-17T02:17:35.709Z,72.96
2023-03-17T02:20:17.265Z,72.74
2023-03-17T02:22:52.845Z,72.81
2023-03-17T02:25:28.875Z,72.72
2023-03-17T02:28:02.711Z,72.93
2023-03-17T02:30:32.265Z,72.79
2023-03-17T02:32:58.858Z,72.90
2023-03-17T02:35:25.414Z,72.92
2023-03-17T02:37:56.505Z,72.93
2023-03-17T02:40:25.305Z,72.85
2023-03-17T02:42:52.160Z,72.61
2023-03-17T02:45:18.846Z,72.62
2023-03-17T02:47:50.274Z,72.60
2023-03-17T02:50:27.537Z,72.45
2023-03-17T02:52:54.875Z,72.01
2023-03-17T02:55:27.084Z,72.12
2023-03-17T02:57:56.343Z,72.26
2023-03-17T03:00:23.236Z,72.03
2023-03-17T03:02:49.992Z,71.89
2023-03-17T03:05:16.672Z,71.71
2023-03-17T03:07:43.426Z,71.57
2023-03-17T03:10:17.848Z,71.60
2023-03-17T03:12:45.547Z,71.68
2023-03-17T03:15:12.157Z,71.29
2023-03-17T03:17:39.142Z,71.48
2023-03-17T03:20:10.836Z,71.38
2023-03-17T03:22:39.752Z,71.52
2023-03-17T03:25:08.747Z,71.51
2023-03-17T03:27:38.148Z,71.60
2023-03-17T03:30:08.002Z,71.69
2023-03-17T03:32:34.661Z,71.47
2023-03-17T03:35:01.741Z,71.34
2023-03-17T03:37:30.782Z,71.37
2023-03-17T03:39:58.666Z,71.59
2023-03-17T03:42:27.672Z,71.42
2023-03-17T03:44:57.745Z,71.39
2023-03-17T03:47:24.248Z,71.03
2023-03-17T03:49:51.729Z,71.03
2023-03-17T03:52:21.274Z,71.01
2023-03-17T03:54:50.228Z,70.79
2023-03-17T03:57:19.215Z,70.60
2023-03-17T03:59:45.934Z,70.11
2023-03-17T04:02:12.482Z,70.28
2023-03-17T04:04:41.414Z,70.29
2023-03-17T04:07:10.580Z,70.31
2023-03-17T04:09:39.556Z,69.90
2023-03-17T04:12:08.864Z,69.81
2023-03-17T04:14:40.587Z,70.14
2023-03-17T04:17:07.661Z,70.25
2023-03-17T04:19:35.012Z,70.10
2023-03-17T04:22:03.666Z,70.07
2023-03-17T04:24:32.698Z,69.94
2023-03-17T04:26:59.231Z,70.68
2023-03-17T04:29:28.337Z,70.35
2023-03-17T04:31:55.031Z,70.04
2023-03-17T04:34:27.303Z,69.86
2023-03-17T04:36:56.547Z,69.63
2023-03-17T04:39:25.378Z,69.56
2023-03-17T04:41:53.936Z,69.70
2023-03-17T04:44:23.899Z,69.50
2023-03-17T04:46:50.338Z,69.48
2023-03-17T04:49:19.517Z,69.37
2023-03-17T04:51:48.334Z,69.72
2023-03-17T04:54:17.075Z,69.70
2023-03-17T04:56:46.436Z,69.91
2023-03-17T04:59:12.952Z,69.77
2023-03-17T05:01:46.125Z,69.56
2023-03-17T05:04:22.109Z,69.92
2023-03-17T05:06:58.233Z,69.65
2023-03-17T05:09:25.633Z,69.65
2023-03-17T05:11:52.305Z,69.60
2023-03-17T05:14:20.540Z,69.60
2023-03-17T05:16:54.242Z,69.69
2023-03-17T05:19:23.475Z,69.66
2023-03-17T05:21:52.301Z,69.54
2023-03-17T05:24:20.364Z,69.89
2023-03-17T05:26:46.936Z,70.03
2023-03-17T05:29:19.027Z,70.05
2023-03-17T05:31:46.094Z,70.57
2023-03-17T05:34:15.964Z,71.31
2023-03-17T05:36:42.466Z,72.06
2023-03-17T05:39:14.633Z,72.52
2023-03-17T05:41:43.786Z,72.86
2023-03-17T05:44:19.573Z,73.25
2023-03-17T05:46:50.086Z,73.44
2023-03-17T05:49:16.557Z,73.84
2023-03-17T05:51:44.400Z,73.91
2023-03-17T05:54:12.130Z,74.10
2023-03-17T05:56:38.719Z,73.82
2023-03-17T05:59:08.313Z,73.58
2023-03-17T06:01:35.651Z,73.58
2023-03-17T06:04:02.820Z,73.33
2023-03-17T06:06:30.375Z,73.34
2023-03-17T06:09:00.218Z,72.86
2023-03-17T06:11:29.028Z,72.81
2023-03-17T06:14:00.213Z,72.70
2023-03-17T06:16:31.533Z,72.61
2023-03-17T06:19:00.627Z,72.20
2023-03-17T06:21:29.342Z,72.54
2023-03-17T06:23:55.925Z,72.35
2023-03-17T06:26:23.910Z,72.16
2023-03-17T06:28:50.478Z,72.36
2023-03-17T06:31:17.933Z,72.34
2023-03-17T06:33:46.802Z,72.36
2023-03-17T06:36:16.909Z,72.44
2023-03-17T06:38:46.230Z,72.17
2023-03-17T06:41:18.473Z,71.83
2023-03-17T06:43:44.941Z,71.78
2023-03-17T06:46:11.439Z,71.27
2023-03-17T06:48:38.395Z,71.07
2023-03-17T06:51:08.164Z,70.51
2023-03-17T06:53:34.611Z,69.34
2023-03-17T06:56:05.016Z,69.01
2023-03-17T06:58:33.223Z,68.76
2023-03-17T07:01:04.162Z,69.07
2023-03-17T07:03:32.841Z,69.19
2023-03-17T07:06:00.158Z,69.26
2023-03-17T07:08:30.876Z,69.11
2023-03-17T07:10:57.636Z,69.14
2023-03-17T07:13:24.713Z,69.39
2023-03-17T07:15:53.932Z,69.41
2023-03-17T07:18:24.038Z,69.27
2023-03-17T07:20:51.697Z,69.69
2023-03-17T07:23:24.954Z,70.05
2023-03-17T07:25:55.067Z,70.00
2023-03-17T07:28:21.827Z,70.05
2023-03-17T07:30:49.850Z,70.17
2023-03-17T07:33:25.281Z,69.97
2023-03-17T07:35:52.394Z,69.46
2023-03-17T07:38:20.465Z,68.90
2023-03-17T07:40:53.044Z,68.72
2023-03-17T07:43:19.623Z,68.53
2023-03-17T07:45:48.065Z,67.93
2023-03-17T07:48:14.723Z,67.48
2023-03-17T07:50:42.391Z,66.99
2023-03-17T07:53:08.993Z,66.54
2023-03-17T07:55:37.338Z,66.14
2023-03-17T07:58:07.564Z,65.94
2023-03-17T08:00:39.715Z,66.01
2023-03-17T08:03:11.279Z,66.05
2023-03-17T08:05:41.184Z,65.02
2023-03-17T08:08:08.194Z,63.64
2023-03-17T08:10:35.311Z,62.71
2023-03-17T08:13:06.687Z,60.53
2023-03-17T08:15:35.528Z,59.18
2023-03-17T08:18:04.580Z,57.94
2023-03-17T08:20:31.965Z,57.21
2023-03-17T08:22:58.986Z,57.27
2023-03-17T08:25:27.765Z,57.35
2023-03-17T08:27:55.386Z,56.07
2023-03-17T08:30:22.332Z,54.44
2023-03-17T08:32:49.732Z,53.69
2023-03-17T08:35:20.876Z,53.37
2023-03-17T08:37:50.788Z,52.93
2023-03-17T08:40:19.679Z,51.88
2023-03-17T08:42:48.741Z,50.05
2023-03-17T08:45:18.358Z,50.90
2023-03-17T08:47:50.262Z,51.56
2023-03-17T08:50:20.839Z,51.07
2023-03-17T08:52:48.775Z,48.89
2023-03-17T08:55:20.049Z,49.16
2023-03-17T08:57:49.836Z,48.06
2023-03-17T09:00:21.097Z,49.48
2023-03-17T09:02:53.999Z,50.35
2023-03-17T09:05:22.733Z,50.65
2023-03-17T09:07:50.015Z,51.86
2023-03-17T09:10:21.202Z,52.56
2023-03-17T09:12:48.398Z,52.68
2023-03-17T09:15:18.246Z,52.60
2023-03-17T09:17:45.356Z,51.21
2023-03-17T09:20:14.579Z,52.12
2023-03-17T09:22:42.412Z,51.91
2023-03-17T09:25:13.822Z,53.15
2023-03-17T09:27:40.824Z,53.73
2023-03-17T09:30:18.693Z,53.82
2023-03-17T09:32:45.538Z,54.94
2023-03-17T09:35:15.854Z,54.49
2023-03-17T09:37:44.634Z,55.18
2023-03-17T09:40:17.157Z,55.48
2023-03-17T09:42:58.144Z,55.58
2023-03-17T09:45:35.476Z,57.44
2023-03-17T09:48:08.339Z,57.29
2023-03-17T09:50:47.195Z,58.33
2023-03-17T09:53:43.109Z,57.32
2023-03-17T09:56:18.241Z,57.29
2023-03-17T09:58:53.980Z,57.65
2023-03-17T10:01:23.193Z,57.82
2023-03-17T10:03:50.889Z,55.63
2023-03-17T10:06:34.011Z,56.35
2023-03-17T10:09:29.863Z,56.77
2023-03-17T10:12:18.337Z,57.11
2023-03-17T10:15:07.672Z,56.20
2023-03-17T10:17:40.138Z,58.07
2023-03-17T10:20:17.356Z,57.75
2023-03-17T10:22:53.051Z,57.44
2023-03-17T10:25:26.370Z,57.58
2023-03-17T10:28:08.795Z,59.03
2023-03-17T10:30:38.884Z,58.18
2023-03-17T10:33:09.953Z,58.85
2023-03-17T10:35:40.574Z,56.92
2023-03-17T10:38:24.642Z,56.79
2023-03-17T10:40:59.908Z,57.16
2023-03-17T10:43:39.102Z,57.31
2023-03-17T10:46:16.207Z,56.14
2023-03-17T10:48:50.497Z,56.06
2023-03-17T10:51:24.631Z,56.46
2023-03-17T10:53:53.325Z,55.04
2023-03-17T10:56:39.409Z,56.33
2023-03-17T10:59:14.576Z,57.65
2023-03-17T11:01:47.292Z,56.63
2023-03-17T11:04:35.597Z,56.13
2023-03-17T11:07:19.881Z,56.39
2023-03-17T11:09:51.420Z,56.26
2023-03-17T11:12:28.690Z,56.67
2023-03-17T11:15:05.050Z,56.67
2023-03-17T11:17:43.352Z,56.62
2023-03-17T11:20:19.101Z,55.90
2023-03-17T11:22:59.051Z,56.01
2023-03-17T11:25:28.412Z,54.50
2023-03-17T11:28:20.866Z,56.65
2023-03-17T11:30:53.264Z,57.39
2023-03-17T11:33:34.508Z,57.52
2023-03-17T11:36:09.412Z,58.70
2023-03-17T11:39:00.237Z,58.38
2023-03-17T11:41:44.903Z,57.42
2023-03-17T11:44:30.532Z,57.32
2023-03-17T11:47:10.675Z,56.56
2023-03-17T11:49:41.013Z,56.04
2023-03-17T11:52:32.600Z,57.40
2023-03-17T11:55:13.487Z,57.70
2023-03-17T11:58:05.301Z,58.15
2023-03-17T12:00:42.922Z,56.85
2023-03-17T12:03:27.865Z,55.54
2023-03-17T12:06:00.967Z,57.07
2023-03-17T12:08:53.340Z,56.73
2023-03-17T12:11:43.241Z,57.00
2023-03-17T12:14:20.058Z,54.97
2023-03-17T12:17:05.741Z,54.60
2023-03-17T12:19:45.126Z,55.36
2023-03-17T12:23:04.296Z,55.50
2023-03-17T12:25:45.806Z,56.31
2023-03-17T12:28:21.476Z,55.72
2023-03-17T12:30:51.880Z,55.89
2023-03-17T12:34:10.723Z,56.09
2023-03-17T12:36:40.454Z,55.20
2023-03-17T12:39:11.389Z,54.84
2023-03-17T12:42:10.037Z,56.40
2023-03-17T12:45:23.531Z,55.96
2023-03-17T12:47:53.010Z,56.14
2023-03-17T12:50:29.072Z,56.52
2023-03-17T12:53:23.527Z,57.51
2023-03-17T12:55:52.015Z,57.63
2023-03-17T12:58:38.874Z,57.53
2023-03-17T13:01:15.166Z,57.06
2023-03-17T13:04:06.012Z,57.76
2023-03-17T13:06:40.784Z,57.95
2023-03-17T13:09:49.832Z,58.44
2023-03-17T13:12:44.380Z,58.48
2023-03-17T13:15:25.544Z,57.32
2023-03-17T13:18:15.306Z,57.25
2023-03-17T13:20:59.380Z,58.09
2023-03-17T13:24:16.854Z,58.69
2023-03-17T13:27:05.056Z,58.50
2023-03-17T13:29:33.993Z,59.28
2023-03-17T13:32:21.385Z,59.18
2023-03-17T13:34:53.910Z,59.79
2023-03-17T13:37:31.578Z,57.65
2023-03-17T13:40:08.322Z,58.84
2023-03-17T13:43:06.986Z,58.50
2023-03-17T13:45:41.719Z,59.10
2023-03-17T13:48:36.352Z,59.14
2023-03-17T13:51:15.333Z,58.60
2023-03-17T13:53:48.798Z,58.14
2023-03-17T13:56:42.288Z,59.58
2023-03-17T13:59:17.714Z,58.41
2023-03-17T14:02:14.069Z,60.18
2023-03-17T14:04:51.593Z,60.29
2023-03-17T14:07:25.494Z,59.29
2023-03-17T14:09:59.942Z,59.02
2023-03-17T14:12:40.384Z,59.08
2023-03-17T14:15:26.926Z,57.82
2023-03-17T14:18:08.698Z,57.37
2023-03-17T14:20:37.834Z,57.23
2023-03-17T14:23:06.572Z,58.81
2023-03-17T14:25:36.250Z,58.92
2023-03-17T14:28:09.413Z,58.23
2023-03-17T14:30:40.081Z,59.03
2023-03-17T14:33:10.209Z,58.91
2023-03-17T14:35:43.042Z,57.47
2023-03-17T14:38:26.407Z,58.66
2023-03-17T14:41:17.634Z,58.73
2023-03-17T14:43:45.205Z,58.04
2023-03-17T14:46:30.650Z,57.49
2023-03-17T14:49:22.684Z,57.66
2023-03-17T14:51:54.400Z,57.68
2023-03-17T14:54:33.577Z,58.80
2023-03-17T14:57:05.127Z,57.42
2023-03-17T14:59:36.968Z,57.36
2023-03-17T15:02:24.835Z,57.13
2023-03-17T15:04:54.564Z,56.37
2023-03-17T15:07:39.940Z,56.94
2023-03-17T15:10:15.797Z,57.74
2023-03-17T15:12:46.613Z,57.14
2023-03-17T15:15:30.142Z,58.09
2023-03-17T15:18:27.233Z,57.90
2023-03-17T15:20:56.481Z,58.37
2023-03-17T15:23:27.843Z,57.54
2023-03-17T15:25:57.145Z,58.58
2023-03-17T15:28:28.607Z,58.61
2023-03-17T15:31:10.803Z,57.19
2023-03-17T15:33:39.886Z,58.13
2023-03-17T15:36:07.703Z,57.13
2023-03-17T15:38:34.457Z,57.06
2023-03-17T15:41:05.746Z,56.01
2023-03-17T15:43:32.237Z,56.64
2023-03-17T15:46:03.033Z,56.54
2023-03-17T15:48:35.148Z,56.63
2023-03-17T15:51:03.415Z,57.44
2023-03-17T15:53:32.207Z,59.22
2023-03-17T15:55:59.362Z,59.47
2023-03-17T15:58:26.267Z,59.76
2023-03-17T16:01:00.654Z,59.98
2023-03-17T16:03:32.150Z,60.16
2023-03-17T16:06:00.264Z,61.16
2023-03-17T16:08:34.046Z,61.49
2023-03-17T16:11:00.723Z,61.53
2023-03-17T16:13:27.551Z,61.60
2023-03-17T16:15:59.925Z,61.84
2023-03-17T16:18:36.970Z,62.42
2023-03-17T16:21:06.042Z,62.43
2023-03-17T16:23:36.998Z,62.75
2023-03-17T16:26:15.494Z,62.99
2023-03-17T16:28:47.631Z,63.01
2023-03-17T16:31:37.267Z,63.11
2023-03-17T16:34:14.091Z,62.66
2023-03-17T16:36:45.971Z,62.54
2023-03-17T16:39:16.109Z,62.56
2023-03-17T16:41:42.606Z,62.24
2023-03-17T16:44:11.383Z,62.54
2023-03-17T16:46:45.206Z,62.47
2023-03-17T16:49:22.892Z,62.68
2023-03-17T16:51:50.883Z,62.86
2023-03-17T16:54:19.796Z,63.20
2023-03-17T16:56:46.346Z,63.65
2023-03-17T16:59:20.052Z,63.47
2023-03-17T17:01:48.927Z,64.13
2023-03-17T17:04:17.930Z,63.98
2023-03-17T17:06:49.941Z,64.62
2023-03-17T17:09:19.135Z,64.54
2023-03-17T17:11:48.028Z,64.10
2023-03-17T17:14:18.300Z,64.07
2023-03-17T17:16:49.652Z,63.53
2023-03-17T17:19:19.184Z,63.81
2023-03-17T17:21:46.756Z,62.99
2023-03-17T17:24:19.063Z,62.73
2023-03-17T17:26:45.669Z,62.59
2023-03-17T17:29:14.353Z,62.89
2023-03-17T17:31:41.392Z,62.84
2023-03-17T17:34:10.321Z,63.18
2023-03-17T17:36:38.657Z,63.45
2023-03-17T17:39:05.120Z,63.87
2023-03-17T17:41:34.543Z,63.07
2023-03-17T17:44:05.867Z,62.91
2023-03-17T17:46:34.689Z,63.54
2023-03-17T17:49:01.197Z,64.00
2023-03-17T17:51:30.957Z,64.10
2023-03-17T17:53:57.502Z,64.97
2023-03-17T17:56:29.293Z,64.51
2023-03-17T17:58:56.872Z,65.30
2023-03-17T18:01:27.797Z,66.47
2023-03-17T18:03:56.772Z,67.54
2023-03-17T18:06:23.882Z,68.52
2023-03-17T18:08:51.978Z,66.81
2023-03-17T18:11:19.065Z,67.33
2023-03-17T18:13:50.655Z,68.34
2023-03-17T18:16:18.493Z,68.56
2023-03-17T18:18:46.140Z,68.03
2023-03-17T18:21:18.531Z,67.53
2023-03-17T18:23:50.088Z,67.82
2023-03-17T18:26:20.575Z,67.39
2023-03-17T18:28:50.094Z,67.52
2023-03-17T18:31:20.007Z,67.35
2023-03-17T18:33:51.203Z,67.89
2023-03-17T18:36:24.068Z,67.26
2023-03-17T18:38:53.767Z,69.12
2023-03-17T18:41:21.908Z,69.84
2023-03-17T18:43:50.885Z,71.19
2023-03-17T18:46:17.465Z,71.52
2023-03-17T18:48:47.870Z,71.55
2023-03-17T18:51:15.605Z,70.77
2023-03-17T18:53:44.583Z,70.68
2023-03-17T18:56:15.704Z,70.86
2023-03-17T18:58:44.980Z,70.92
2023-03-17T19:01:11.766Z,70.95
2023-03-17T19:03:41.478Z,71.19
2023-03-17T19:06:14.363Z,70.87
2023-03-17T19:08:45.007Z,71.71
2023-03-17T19:11:16.158Z,71.87
2023-03-17T19:13:42.983Z,71.89
2023-03-17T19:16:09.577Z,71.61
2023-03-17T19:18:37.430Z,71.30
2023-03-17T19:21:04.148Z,70.83
2023-03-17T19:23:34.252Z,71.16
2023-03-17T19:26:01.168Z,70.72
2023-03-17T19:28:31.313Z,70.28
2023-03-17T19:30:58.073Z,70.07
2023-03-17T19:33:28.842Z,70.40
2023-03-17T19:35:59.973Z,70.75
2023-03-17T19:38:27.081Z,71.06
2023-03-17T19:40:54.385Z,71.11
2023-03-17T19:43:37.499Z,71.03
2023-03-17T19:46:10.050Z,70.07
2023-03-17T19:48:39.850Z,70.15
2023-03-17T19:51:07.455Z,69.84
2023-03-17T19:53:37.685Z,69.68
2023-03-17T19:56:07.287Z,69.64
2023-03-17T19:58:36.952Z,69.90
2023-03-17T20:01:06.869Z,69.85
2023-03-17T20:03:37.816Z,69.00
2023-03-17T20:06:06.941Z,68.34
2023-03-17T20:08:33.825Z,67.52
2023-03-17T20:11:04.490Z,67.58
2023-03-17T20:13:30.994Z,67.64
2023-03-17T20:16:01.640Z,67.03
2023-03-17T20:18:29.091Z,67.03
2023-03-17T20:21:00.530Z,67.28
2023-03-17T20:23:27.079Z,67.17
2023-03-17T20:25:56.023Z,67.21
2023-03-17T20:28:25.241Z,66.86
2023-03-17T20:30:51.873Z,67.08
2023-03-17T20:33:23.821Z,66.75
2023-03-17T20:35:50.633Z,66.84
2023-03-17T20:38:18.653Z,67.42
2023-03-17T20:40:45.084Z,67.30
2023-03-17T20:43:14.136Z,68.53
2023-03-17T20:45:41.060Z,69.21
2023-03-17T20:48:11.561Z,69.26
2023-03-17T20:50:38.958Z,69.66
2023-03-17T20:53:07.492Z,69.84
2023-03-17T20:55:36.793Z,70.09
2023-03-17T20:58:03.977Z,70.06
2023-03-17T21:00:33.246Z,70.04
2023-03-17T21:03:00.565Z,69.80
2023-03-17T21:05:27.697Z,70.12
2023-03-17T21:07:54.421Z,70.74
2023-03-17T21:10:21.171Z,71.27
2023-03-17T21:12:48.007Z,70.95
2023-03-17T21:15:16.801Z,71.16
2023-03-17T21:17:44.072Z,70.64
2023-03-17T21:20:17.532Z,70.67
2023-03-17T21:22:44.217Z,70.76
2023-03-17T21:25:14.261Z,71.14
2023-03-17T21:27:46.071Z,70.58
2023-03-17T21:30:15.737Z,70.55
2023-03-17T21:32:42.419Z,70.42
2023-03-17T21:35:11.197Z,70.49
2023-03-17T21:37:37.743Z,70.85
2023-03-17T21:40:07.345Z,70.70
2023-03-17T21:42:34.727Z,70.58
2023-03-17T21:45:03.445Z,71.19
2023-03-17T21:47:30.080Z,71.69
2023-03-17T21:49:59.992Z,71.38
2023-03-17T21:52:27.011Z,71.88
2023-03-17T21:54:53.513Z,72.21
2023-03-17T21:57:23.179Z,72.04
2023-03-17T21:59:52.432Z,71.58
2023-03-17T22:02:23.060Z,71.86
2023-03-17T22:04:49.747Z,71.68
2023-03-17T22:07:22.153Z,71.87
2023-03-17T22:09:51.724Z,71.81
2023-03-17T22:12:19.212Z,71.53
2023-03-17T22:14:46.165Z,71.54
2023-03-17T22:17:13.224Z,72.07
2023-03-17T22:19:42.299Z,72.05
2023-03-17T22:22:11.298Z,72.17
2023-03-17T22:24:41.701Z,72.48
2023-03-17T22:27:08.461Z,73.24
2023-03-17T22:29:35.452Z,73.40
2023-03-17T22:32:06.650Z,73.24
2023-03-17T22:34:33.506Z,73.89
2023-03-17T22:37:02.769Z,74.35
2023-03-17T22:39:31.961Z,73.95
2023-03-17T22:42:04.244Z,73.81
2023-03-17T22:44:31.272Z,73.45
2023-03-17T22:47:00.352Z,73.05
2023-03-17T22:49:29.172Z,72.95
2023-03-17T22:51:57.802Z,73.09
2023-03-17T22:54:29.650Z,72.94
2023-03-17T22:56:56.149Z,73.09
2023-03-17T22:59:25.431Z,73.28
2023-03-17T23:01:54.375Z,73.38
2023-03-17T23:04:24.557Z,73.49
2023-03-17T23:06:52.807Z,73.41
2023-03-17T23:09:20.428Z,73.47
2023-03-17T23:11:52.769Z,73.67
2023-03-17T23:14:21.589Z,73.94
2023-03-17T23:16:48.737Z,73.95
2023-03-17T23:19:17.412Z,74.06
2023-03-17T23:21:46.854Z,74.33
2023-03-17T23:24:15.982Z,74.42
2023-03-17T23:26:44.782Z,74.66
2023-03-17T23:29:13.903Z,74.73
2023-03-17T23:31:43.281Z,74.84
2023-03-17T23:34:12.062Z,75.17
2023-03-17T23:36:41.056Z,75.24
2023-03-17T23:39:09.107Z,75.56
2023-03-17T23:41:36.609Z,75.34
2023-03-17T23:44:05.505Z,75.89
2023-03-17T23:46:32.190Z,76.42
2023-03-17T23:48:58.652Z,76.67
2023-03-17T23:51:25.187Z,76.90
2023-03-17T23:53:52.862Z,77.13
2023-03-17T23:56:21.777Z,77.22
2023-03-17T23:58:53.114Z,77.37
